Acadia Valley, Canada
Current Conditions -  °F | °C
As of 6:25 AM on Saturday 22 Nov 2014 (Local Time) from CYKY Reporting Station
Overcast Overcast  
Wind Chill: -8°   Ceiling: 3800
Heat Index: -1°   Visibility: 15mi
Dew Point: -2°   Wind: 21mph
Humidity: 93%   Direction: 100°E
Pressure: 29.18"   Gusts: NA
Location:  51.15°N, 110.2°W
Report Text: CYKY 221325Z 10018KT 15SM OVC038 M01/M02 A2918 RMK SC8 SLP903
Loading
Personal Weather Stations






























Interactive Weather Map New forecast layout! Learn more

10-Day Weather Forecast

Advertisements
Track Severe Weather on mobile